createdAt,value
2023-02-13T00:01:40.479Z,83.33
2023-02-13T00:04:07.505Z,80.50
2023-02-13T00:06:34.480Z,80.57
2023-02-13T00:09:02.720Z,84.17
2023-02-13T00:11:29.698Z,78.80
2023-02-13T00:13:56.782Z,81.47
2023-02-13T00:16:23.872Z,81.07
2023-02-13T00:18:50.868Z,82.43
2023-02-13T00:21:17.923Z,82.23
2023-02-13T00:23:45.020Z,82.37
2023-02-13T00:26:15.478Z,85.03
2023-02-13T00:28:43.553Z,80.90
2023-02-13T00:31:22.078Z,87.73
2023-02-13T00:33:49.288Z,83.13
2023-02-13T00:36:20.839Z,82.83
2023-02-13T00:38:49.226Z,80.47
2023-02-13T00:41:19.051Z,76.03
2023-02-13T00:43:48.117Z,80.60
2023-02-13T00:46:17.015Z,79.93
2023-02-13T00:48:45.000Z,78.70
2023-02-13T00:51:12.887Z,82.70
2023-02-13T00:53:40.432Z,83.30
2023-02-13T00:56:07.987Z,80.63
2023-02-13T00:58:35.020Z,76.87
2023-02-13T01:01:02.190Z,86.70
2023-02-13T01:03:29.630Z,76.50
2023-02-13T01:05:58.340Z,77.13
2023-02-13T01:08:28.297Z,76.87
2023-02-13T01:10:56.460Z,82.10
2023-02-13T01:13:23.858Z,74.43
2023-02-13T01:15:51.618Z,76.50
2023-02-13T01:18:20.634Z,81.23
2023-02-13T01:21:00.064Z,79.57
2023-02-13T01:23:31.713Z,81.87
2023-02-13T01:25:58.695Z,79.80
2023-02-13T01:28:25.840Z,75.60
2023-02-13T01:30:57.922Z,76.53
2023-02-13T01:33:28.194Z,74.57
2023-02-13T01:35:55.284Z,76.33
2023-02-13T01:38:22.362Z,78.43
2023-02-13T01:40:54.507Z,76.83
2023-02-13T01:43:23.632Z,77.70
2023-02-13T01:45:55.751Z,76.17
2023-02-13T01:48:27.756Z,75.90
2023-02-13T01:51:09.012Z,84.63
2023-02-13T01:53:41.664Z,80.87
2023-02-13T01:56:45.411Z,80.30
2023-02-13T01:59:18.456Z,74.53
2023-02-13T02:01:45.940Z,77.10
2023-02-13T02:04:20.020Z,74.20
2023-02-13T02:06:52.984Z,74.07
2023-02-13T02:09:26.654Z,76.77
2023-02-13T02:12:02.848Z,77.47
2023-02-13T02:14:29.955Z,75.97
2023-02-13T02:16:57.772Z,74.50
2023-02-13T02:19:33.852Z,74.83
2023-02-13T02:22:31.099Z,76.50
2023-02-13T02:25:22.129Z,72.63
2023-02-13T02:28:13.832Z,76.80
2023-02-13T02:31:04.542Z,69.77
2023-02-13T02:34:01.379Z,71.60
2023-02-13T02:36:49.483Z,75.27
2023-02-13T02:39:31.403Z,70.37
2023-02-13T02:42:53.257Z,76.20
2023-02-13T02:45:38.485Z,69.40
2023-02-13T02:48:45.457Z,67.40
2023-02-13T02:51:49.302Z,89.63
2023-02-13T02:54:48.193Z,69.43
2023-02-13T02:57:23.339Z,71.07
2023-02-13T03:00:11.792Z,72.37
2023-02-13T03:02:57.284Z,68.20
2023-02-13T03:05:53.959Z,67.43
2023-02-13T03:08:41.212Z,65.57
2023-02-13T03:11:27.913Z,75.80
2023-02-13T03:13:55.782Z,83.90
2023-02-13T03:16:44.191Z,67.37
2023-02-13T03:20:06.375Z,66.90
2023-02-13T03:23:08.406Z,67.10
2023-02-13T03:26:18.602Z,63.10
2023-02-13T03:29:33.286Z,62.63
2023-02-13T03:32:27.961Z,65.40
2023-02-13T03:35:39.017Z,63.13
2023-02-13T03:38:17.263Z,69.60
2023-02-13T03:41:10.171Z,64.93
2023-02-13T03:43:47.750Z,64.10
2023-02-13T03:46:17.503Z,61.00
2023-02-13T03:49:04.866Z,64.10
2023-02-13T03:52:08.459Z,65.70
2023-02-13T03:55:09.946Z,61.77
2023-02-13T03:57:58.044Z,62.53
2023-02-13T04:00:29.462Z,63.20
2023-02-13T04:03:29.256Z,62.83
2023-02-13T04:06:09.238Z,64.50
2023-02-13T04:08:36.353Z,74.50
2023-02-13T04:11:15.982Z,67.53
2023-02-13T04:13:55.526Z,62.53
2023-02-13T04:16:34.835Z,63.13
2023-02-13T04:19:03.182Z,63.30
2023-02-13T04:21:38.382Z,59.27
2023-02-13T04:24:05.786Z,60.90
2023-02-13T04:26:40.708Z,61.73
2023-02-13T04:29:08.489Z,63.10
2023-02-13T04:31:35.740Z,62.67
2023-02-13T04:34:02.866Z,64.83
2023-02-13T04:36:30.183Z,79.57
2023-02-13T04:38:57.197Z,59.63
2023-02-13T04:41:24.283Z,59.00
2023-02-13T04:43:52.528Z,62.23
2023-02-13T04:46:19.787Z,61.43
2023-02-13T04:48:46.798Z,63.00
2023-02-13T04:51:14.611Z,63.77
2023-02-13T04:53:41.672Z,76.13
2023-02-13T04:56:08.730Z,65.73
2023-02-13T04:58:35.696Z,62.23
2023-02-13T05:01:03.155Z,66.30
2023-02-13T05:03:30.175Z,61.17
2023-02-13T05:05:57.273Z,79.97
2023-02-13T05:08:24.232Z,60.67
2023-02-13T05:10:51.257Z,88.17
2023-02-13T05:13:21.630Z,62.50
2023-02-13T05:15:49.437Z,60.13
2023-02-13T05:18:16.464Z,88.97
2023-02-13T05:20:43.385Z,63.23
2023-02-13T05:23:23.879Z,61.13
2023-02-13T05:25:51.037Z,57.70
2023-02-13T05:28:36.363Z,60.73
2023-02-13T05:31:03.668Z,68.63
2023-02-13T05:33:34.518Z,59.17
2023-02-13T05:36:01.602Z,60.60
2023-02-13T05:38:28.578Z,65.20
2023-02-13T05:40:56.049Z,81.13
2023-02-13T05:43:23.290Z,57.03
2023-02-13T05:46:04.908Z,73.67
2023-02-13T05:48:32.775Z,59.40
2023-02-13T05:50:59.857Z,64.83
2023-02-13T05:53:27.419Z,67.77
2023-02-13T05:55:54.390Z,59.03
2023-02-13T05:58:21.984Z,58.13
2023-02-13T06:00:49.026Z,54.93
2023-02-13T06:03:15.998Z,68.40
2023-02-13T06:05:42.932Z,57.50
2023-02-13T06:08:09.919Z,61.00
2023-02-13T06:10:36.846Z,60.93
2023-02-13T06:13:03.870Z,57.10
2023-02-13T06:15:31.440Z,59.10
2023-02-13T06:17:58.395Z,62.13
2023-02-13T06:20:25.393Z,57.17
2023-02-13T06:22:53.519Z,55.07
2023-02-13T06:25:20.949Z,60.80
2023-02-13T06:27:49.246Z,55.60
2023-02-13T06:30:17.641Z,57.83
2023-02-13T06:32:47.579Z,54.73
2023-02-13T06:35:15.321Z,58.17
2023-02-13T06:37:45.898Z,58.43
2023-02-13T06:40:14.993Z,58.40
2023-02-13T06:42:45.720Z,54.67
2023-02-13T06:45:13.722Z,59.27
2023-02-13T06:47:48.550Z,57.17
2023-02-13T06:50:16.921Z,59.20
2023-02-13T06:52:51.814Z,54.80
2023-02-13T06:55:19.225Z,60.43
2023-02-13T06:57:46.808Z,54.87
2023-02-13T07:00:17.030Z,58.10
2023-02-13T07:02:46.395Z,55.83
2023-02-13T07:05:14.218Z,55.97
2023-02-13T07:07:42.736Z,59.73
2023-02-13T07:10:13.917Z,53.90
2023-02-13T07:12:41.164Z,55.33
2023-02-13T07:15:08.973Z,54.20
2023-02-13T07:17:36.453Z,56.57
2023-02-13T07:20:05.126Z,55.87
2023-02-13T07:22:35.501Z,53.83
2023-02-13T07:25:02.534Z,54.53
2023-02-13T07:27:29.652Z,56.30
2023-02-13T07:29:57.761Z,55.50
2023-02-13T07:32:25.813Z,55.07
2023-02-13T07:35:01.682Z,58.03
2023-02-13T07:37:31.693Z,57.47
2023-02-13T07:39:58.716Z,55.50
2023-02-13T07:42:25.753Z,57.80
2023-02-13T07:44:52.713Z,58.07
2023-02-13T07:47:20.325Z,59.63
2023-02-13T07:49:47.549Z,76.97
2023-02-13T07:52:14.686Z,58.07
2023-02-13T07:54:47.832Z,60.40
2023-02-13T07:57:16.350Z,87.10
2023-02-13T07:59:43.847Z,61.70
2023-02-13T08:02:15.913Z,57.00
2023-02-13T08:04:49.306Z,60.83
2023-02-13T08:07:18.449Z,60.97
2023-02-13T08:10:04.761Z,55.00
2023-02-13T08:12:35.410Z,56.40
2023-02-13T08:15:03.072Z,57.03
2023-02-13T08:17:30.048Z,55.20
2023-02-13T08:19:57.420Z,56.53
2023-02-13T08:22:24.505Z,63.30
2023-02-13T08:24:51.500Z,54.83
2023-02-13T08:27:18.580Z,56.00
2023-02-13T08:29:45.632Z,58.17
2023-02-13T08:32:12.693Z,54.50
2023-02-13T08:34:39.853Z,85.63
2023-02-13T08:37:06.875Z,79.60
2023-02-13T08:39:34.108Z,78.30
2023-02-13T08:42:01.213Z,75.97
2023-02-13T08:44:28.314Z,65.17
2023-02-13T08:46:56.056Z,57.97
2023-02-13T08:49:23.625Z,57.47
2023-02-13T08:51:51.178Z,59.40
2023-02-13T08:54:18.260Z,62.93
2023-02-13T08:56:45.700Z,58.47
2023-02-13T08:59:12.934Z,60.33
2023-02-13T09:01:40.495Z,61.80
2023-02-13T09:04:07.556Z,61.47
2023-02-13T09:06:34.499Z,60.50
2023-02-13T09:09:01.646Z,60.87
2023-02-13T09:11:28.596Z,64.43
2023-02-13T09:13:55.967Z,68.47
2023-02-13T09:16:23.651Z,68.27
2023-02-13T09:18:51.699Z,68.63
2023-02-13T09:21:21.159Z,73.60
2023-02-13T09:23:48.288Z,73.80
2023-02-13T09:26:16.475Z,68.13
2023-02-13T09:28:44.541Z,68.67
2023-02-13T09:31:17.566Z,68.53
2023-02-13T09:33:46.552Z,71.97
2023-02-13T09:36:19.369Z,70.43
2023-02-13T09:38:55.206Z,73.47
2023-02-13T09:41:36.916Z,78.67
2023-02-13T09:44:35.711Z,74.13
2023-02-13T09:47:32.985Z,80.30
2023-02-13T09:50:28.181Z,78.03
2023-02-13T09:52:57.988Z,81.90
2023-02-13T09:55:32.722Z,82.00
2023-02-13T09:58:31.273Z,79.00
2023-02-13T10:01:02.589Z,95.07
2023-02-13T10:04:11.227Z,94.47
2023-02-13T10:06:50.950Z,89.27
2023-02-13T10:09:35.959Z,91.17
2023-02-13T10:12:28.068Z,85.73
2023-02-13T10:15:19.248Z,93.60
2023-02-13T10:17:58.322Z,99.17
2023-02-13T10:21:00.879Z,100.67
2023-02-13T10:23:37.170Z,108.57
2023-02-13T10:26:22.147Z,89.17
2023-02-13T10:29:24.788Z,89.67
2023-02-13T10:31:56.100Z,91.07
2023-02-13T10:34:27.556Z,103.67
2023-02-13T10:36:55.353Z,109.90
2023-02-13T10:39:29.541Z,109.13
2023-02-13T10:42:24.103Z,116.10
2023-02-13T10:45:10.176Z,111.97
2023-02-13T10:47:43.245Z,118.20
2023-02-13T10:50:33.282Z,110.07
2023-02-13T10:53:30.785Z,105.67
2023-02-13T10:56:34.856Z,97.73
2023-02-13T10:59:45.161Z,105.57
2023-02-13T11:02:29.128Z,112.00
2023-02-13T11:05:03.319Z,115.90
2023-02-13T11:07:31.892Z,110.17
2023-02-13T11:10:06.202Z,111.00
2023-02-13T11:12:35.017Z,121.30
2023-02-13T11:15:06.748Z,130.43
2023-02-13T11:17:42.367Z,131.13
2023-02-13T11:20:30.526Z,135.40
2023-02-13T11:23:29.758Z,117.63
2023-02-13T11:26:00.905Z,134.93
2023-02-13T11:28:36.298Z,138.73
2023-02-13T11:31:26.315Z,144.10
2023-02-13T11:33:54.867Z,137.40
2023-02-13T11:36:33.751Z,171.13
2023-02-13T11:39:21.092Z,126.87
2023-02-13T11:41:52.572Z,147.73
2023-02-13T11:44:26.672Z,156.73
2023-02-13T11:46:57.743Z,132.95
2023-02-13T11:49:33.888Z,153.57
2023-02-13T11:52:26.901Z,133.00
2023-02-13T11:55:01.547Z,138.18
2023-02-13T11:57:37.387Z,129.85
2023-02-13T12:00:32.443Z,129.45
2023-02-13T12:02:59.745Z,130.65
2023-02-13T12:05:28.740Z,138.57
2023-02-13T12:08:02.135Z,140.23
2023-02-13T12:10:32.974Z,141.80
2023-02-13T12:13:19.124Z,137.25
2023-02-13T12:15:52.384Z,146.98
2023-02-13T12:18:45.277Z,149.05
2023-02-13T12:22:18.655Z,163.88
2023-02-13T12:25:56.835Z,160.02
2023-02-13T12:28:47.843Z,174.38
2023-02-13T12:31:52.972Z,179.95
2023-02-13T12:35:04.599Z,207.10
2023-02-13T12:37:56.997Z,195.15
2023-02-13T12:40:34.288Z,204.65
2023-02-13T12:43:36.768Z,224.30
2023-02-13T12:46:33.921Z,229.38
2023-02-13T12:49:34.425Z,261.05
2023-02-13T12:52:31.422Z,272.90
2023-02-13T12:55:19.670Z,289.23
2023-02-13T12:58:17.481Z,311.23
2023-02-13T13:00:59.772Z,322.73
2023-02-13T13:03:45.217Z,331.73
2023-02-13T13:06:30.223Z,341.25
2023-02-13T13:09:31.220Z,351.77
2023-02-13T13:12:21.620Z,356.48
2023-02-13T13:14:55.156Z,436.95
2023-02-13T13:18:01.277Z,369.65
2023-02-13T13:21:11.892Z,384.65
2023-02-13T13:24:00.456Z,413.50
2023-02-13T13:26:40.775Z,413.38
2023-02-13T13:29:22.822Z,436.38
2023-02-13T13:32:07.562Z,447.85
2023-02-13T13:34:39.266Z,467.05
2023-02-13T13:38:03.580Z,477.65
2023-02-13T13:40:30.502Z,472.20
2023-02-13T13:43:27.576Z,491.00
2023-02-13T13:46:22.401Z,504.60
2023-02-13T13:49:10.434Z,517.67
2023-02-13T13:51:37.881Z,530.65
2023-02-13T13:54:07.844Z,548.22
2023-02-13T13:56:53.455Z,556.67
2023-02-13T13:59:51.782Z,541.15
2023-02-13T14:02:18.838Z,554.20
2023-02-13T14:05:13.537Z,564.28
2023-02-13T14:07:41.973Z,555.45
2023-02-13T14:10:21.352Z,562.65
2023-02-13T14:13:09.968Z,574.20
2023-02-13T14:15:40.000Z,568.58
2023-02-13T14:18:22.321Z,584.10
2023-02-13T14:20:52.449Z,621.13
2023-02-13T14:23:45.644Z,600.60
2023-02-13T14:26:15.593Z,609.70
2023-02-13T14:28:50.053Z,614.08
2023-02-13T14:31:34.414Z,612.10
2023-02-13T14:34:14.475Z,612.38
2023-02-13T14:36:46.721Z,629.65
2023-02-13T14:39:16.625Z,619.88
2023-02-13T14:41:55.103Z,635.47
2023-02-13T14:44:35.989Z,642.63
2023-02-13T14:47:16.981Z,643.25
2023-02-13T14:49:45.392Z,649.97
2023-02-13T14:52:30.218Z,654.63
2023-02-13T14:55:07.643Z,659.95
2023-02-13T14:57:54.013Z,653.38
2023-02-13T15:00:29.888Z,651.85
2023-02-13T15:03:04.243Z,661.67
2023-02-13T15:05:36.090Z,659.03
2023-02-13T15:08:15.564Z,660.83
2023-02-13T15:10:49.693Z,671.90
2023-02-13T15:13:21.614Z,662.55
2023-02-13T15:16:15.231Z,669.47
2023-02-13T15:18:49.979Z,667.67
2023-02-13T15:21:21.461Z,668.42
2023-02-13T15:23:56.902Z,684.63
2023-02-13T15:26:28.025Z,682.83
2023-02-13T15:29:05.804Z,675.42
2023-02-13T15:31:35.570Z,683.10
2023-02-13T15:34:02.739Z,681.38
2023-02-13T15:36:50.002Z,687.25
2023-02-13T15:39:23.227Z,681.10
2023-02-13T15:41:54.715Z,678.88
2023-02-13T15:44:30.084Z,684.40
2023-02-13T15:47:14.488Z,681.97
2023-02-13T15:49:47.360Z,679.50
2023-02-13T15:52:37.336Z,675.90
2023-02-13T15:55:04.894Z,685.17
2023-02-13T15:57:32.222Z,682.55
2023-02-13T16:00:01.317Z,684.80
2023-02-13T16:02:47.829Z,681.10
2023-02-13T16:05:20.044Z,676.83
2023-02-13T16:07:59.496Z,664.70
2023-02-13T16:10:32.038Z,655.05
2023-02-13T16:13:06.197Z,658.25
2023-02-13T16:15:36.526Z,641.65
2023-02-13T16:18:06.301Z,628.85
2023-02-13T16:20:34.734Z,622.90
2023-02-13T16:23:10.423Z,615.70
2023-02-13T16:25:41.928Z,619.05
2023-02-13T16:28:23.700Z,588.00
2023-02-13T16:31:03.012Z,575.83
2023-02-13T16:33:32.082Z,570.95
2023-02-13T16:36:09.465Z,565.78
2023-02-13T16:38:50.002Z,547.25
2023-02-13T16:41:23.104Z,533.60
2023-02-13T16:44:03.695Z,523.97
2023-02-13T16:46:45.332Z,501.50
2023-02-13T16:49:40.846Z,493.52
2023-02-13T16:52:19.009Z,465.92
2023-02-13T16:55:00.956Z,455.95
2023-02-13T16:57:35.194Z,446.23
2023-02-13T17:00:24.438Z,425.42
2023-02-13T17:02:51.696Z,408.08
2023-02-13T17:05:25.959Z,403.90
2023-02-13T17:07:58.011Z,386.50
2023-02-13T17:10:33.987Z,380.75
2023-02-13T17:13:12.111Z,358.73
2023-02-13T17:15:44.330Z,349.00
2023-02-13T17:18:11.395Z,343.33
2023-02-13T17:20:43.111Z,335.25
2023-02-13T17:23:22.581Z,317.63
2023-02-13T17:25:52.737Z,296.02
2023-02-13T17:28:25.051Z,296.00
2023-02-13T17:30:56.399Z,277.10
2023-02-13T17:33:29.158Z,268.83
2023-02-13T17:35:56.282Z,272.33
2023-02-13T17:38:23.752Z,246.68
2023-02-13T17:40:51.908Z,246.88
2023-02-13T17:43:20.715Z,229.15
2023-02-13T17:45:49.803Z,228.32
2023-02-13T17:48:17.546Z,214.93
2023-02-13T17:50:45.287Z,215.60
2023-02-13T17:53:32.155Z,203.38
2023-02-13T17:55:59.740Z,203.68
2023-02-13T17:58:26.955Z,185.82
2023-02-13T18:00:54.058Z,205.90
2023-02-13T18:03:22.511Z,188.95
2023-02-13T18:05:50.227Z,178.25
2023-02-13T18:08:17.875Z,196.13
2023-02-13T18:10:44.932Z,182.85
2023-02-13T18:13:12.948Z,174.75
2023-02-13T18:15:44.187Z,170.90
2023-02-13T18:18:12.947Z,166.63
2023-02-13T18:20:39.984Z,160.52
2023-02-13T18:23:07.345Z,167.18
2023-02-13T18:25:35.308Z,142.63
2023-02-13T18:28:02.469Z,138.50
2023-02-13T18:30:29.659Z,137.98
2023-02-13T18:32:59.116Z,158.25
2023-02-13T18:35:26.910Z,136.65
2023-02-13T18:37:54.318Z,138.65
2023-02-13T18:40:21.625Z,131.75
2023-02-13T18:42:51.064Z,135.68
2023-02-13T18:45:18.431Z,122.32
2023-02-13T18:48:03.178Z,128.27
2023-02-13T18:50:30.660Z,123.25
2023-02-13T18:52:57.633Z,122.40
2023-02-13T18:55:24.667Z,120.63
2023-02-13T18:57:54.502Z,133.82
2023-02-13T19:00:23.345Z,124.28
2023-02-13T19:02:50.363Z,127.28
2023-02-13T19:05:17.629Z,113.78
2023-02-13T19:07:44.709Z,111.22
2023-02-13T19:10:11.975Z,110.90
2023-02-13T19:12:39.020Z,113.90
2023-02-13T19:15:06.436Z,116.45
2023-02-13T19:17:35.598Z,107.03
2023-02-13T19:20:03.097Z,114.55
2023-02-13T19:22:30.156Z,112.55
2023-02-13T19:24:57.210Z,107.18
2023-02-13T19:27:24.363Z,110.55
2023-02-13T19:29:51.526Z,111.30
2023-02-13T19:32:18.635Z,97.00
2023-02-13T19:34:46.969Z,86.63
2023-02-13T19:37:13.917Z,88.27
2023-02-13T19:39:43.359Z,92.10
2023-02-13T19:42:10.531Z,82.60
2023-02-13T19:44:37.540Z,84.10
2023-02-13T19:47:04.786Z,85.23
2023-02-13T19:49:31.718Z,84.63
2023-02-13T19:52:01.747Z,132.97
2023-02-13T19:54:29.098Z,82.47
2023-02-13T19:57:00.488Z,80.90
2023-02-13T19:59:27.958Z,77.93
2023-02-13T20:01:55.360Z,80.73
2023-02-13T20:04:23.202Z,77.70
2023-02-13T20:06:51.200Z,79.67
2023-02-13T20:09:18.444Z,83.93
2023-02-13T20:11:45.698Z,83.43
2023-02-13T20:14:15.314Z,78.13
2023-02-13T20:16:45.657Z,75.17
2023-02-13T20:24:30.853Z,90.07
2023-02-13T20:26:59.228Z,81.13
2023-02-13T20:29:26.436Z,80.13
2023-02-13T20:31:54.125Z,73.93
2023-02-13T20:34:21.412Z,76.37
2023-02-13T20:36:48.479Z,76.17
2023-02-13T20:39:15.503Z,75.67
2023-02-13T20:41:48.593Z,81.10
2023-02-13T20:44:17.345Z,77.63
2023-02-13T20:46:44.351Z,87.70
2023-02-13T20:49:12.850Z,95.30
2023-02-13T20:51:39.952Z,97.73
2023-02-13T20:54:07.480Z,93.73
2023-02-13T20:56:36.146Z,82.27
2023-02-13T20:59:05.385Z,77.57
2023-02-13T21:01:40.384Z,127.30
2023-02-13T21:04:13.811Z,76.33
2023-02-13T21:06:42.237Z,76.87
2023-02-13T21:09:10.121Z,82.47
2023-02-13T21:11:39.829Z,71.13
2023-02-13T21:14:07.182Z,81.20
2023-02-13T21:16:38.916Z,78.03
2023-02-13T21:19:13.710Z,81.10
2023-02-13T21:21:44.255Z,71.27
2023-02-13T21:24:18.472Z,86.00
2023-02-13T21:26:46.081Z,72.73
2023-02-13T21:29:13.418Z,75.07
2023-02-13T21:31:51.237Z,75.70
2023-02-13T21:34:18.519Z,78.67
2023-02-13T21:36:45.935Z,71.60
2023-02-13T21:39:13.786Z,73.00
2023-02-13T21:41:44.057Z,72.63
2023-02-13T21:44:15.873Z,75.00
2023-02-13T21:46:44.604Z,71.57
2023-02-13T21:49:15.252Z,74.67
2023-02-13T21:51:42.608Z,73.10
2023-02-13T21:54:10.204Z,73.17
2023-02-13T21:56:40.757Z,70.43
2023-02-13T21:59:08.391Z,65.37
2023-02-13T22:01:37.994Z,64.43
2023-02-13T22:04:09.179Z,64.53
2023-02-13T22:06:39.381Z,65.43
2023-02-13T22:09:09.060Z,68.23
2023-02-13T22:11:36.915Z,67.37
2023-02-13T22:14:07.037Z,69.43
2023-02-13T22:16:38.895Z,68.87
2023-02-13T22:19:08.680Z,64.37
2023-02-13T22:21:36.822Z,67.30
2023-02-13T22:24:04.770Z,73.57
2023-02-13T22:26:38.391Z,69.07
2023-02-13T22:29:12.056Z,64.70
2023-02-13T22:31:39.701Z,64.63
2023-02-13T22:34:07.237Z,64.60
2023-02-13T22:36:40.330Z,66.03
2023-02-13T22:39:10.266Z,67.70
2023-02-13T22:41:37.979Z,72.90
2023-02-13T22:44:05.259Z,64.27
2023-02-13T22:46:33.960Z,77.60
2023-02-13T22:49:01.649Z,62.57
2023-02-13T22:51:36.062Z,78.73
2023-02-13T22:54:04.317Z,68.73
2023-02-13T22:56:32.520Z,75.33
2023-02-13T22:59:00.303Z,68.63
2023-02-13T23:01:28.942Z,78.93
2023-02-13T23:03:56.988Z,65.70
2023-02-13T23:06:24.591Z,66.30
2023-02-13T23:08:54.551Z,61.33
2023-02-13T23:11:44.668Z,71.70
2023-02-13T23:14:12.645Z,66.40
2023-02-13T23:17:00.410Z,60.10
2023-02-13T23:19:29.783Z,64.80
2023-02-13T23:21:57.058Z,63.80
2023-02-13T23:24:24.121Z,69.17
2023-02-13T23:26:54.567Z,81.93
2023-02-13T23:29:21.674Z,68.20
2023-02-13T23:31:48.788Z,63.43
2023-02-13T23:34:15.881Z,80.70
2023-02-13T23:36:42.880Z,64.80
2023-02-13T23:39:10.081Z,67.80
2023-02-13T23:41:37.077Z,63.77
2023-02-13T23:44:04.173Z,67.40
2023-02-13T23:46:31.206Z,76.40
2023-02-13T23:48:58.234Z,67.53
2023-02-13T23:51:25.738Z,68.83
2023-02-13T23:53:56.260Z,65.77
2023-02-13T23:56:25.306Z,67.27
2023-02-13T23:58:53.086Z,66.53
